Time;durP1;ratioP1;P1;durP2;ratioP2;P2;SDS_P1;SDS_P2;PMS_P1;PMS_P2;Temp;Humidity;BMP_temperature;BMP_pressure;BME280_temperature;BME280_humidity;BME280_pressure;Samples;Min_cycle;Max_cycle;Signal;HPM_P1;HPM_P2
2021/09/18 00:01:32;;;;;;;7.80;6.87;;;15.40;81.50;;;;;;4952678;28;20463;-43
2021/09/18 00:03:59;;;;;;;7.50;6.20;;;15.40;81.60;;;;;;4946834;28;20447;-43
2021/09/18 00:06:26;;;;;;;6.83;6.23;;;15.40;81.70;;;;;;4951187;28;20479;-43
2021/09/18 00:08:53;;;;;;;9.63;7.70;;;15.40;81.60;;;;;;4950021;28;20447;-43
2021/09/18 00:11:20;;;;;;;8.03;7.23;;;15.40;81.50;;;;;;4954770;28;20458;-43
2021/09/18 00:13:46;;;;;;;9.40;7.07;;;15.40;81.40;;;;;;4966071;28;20518;-43
2021/09/18 00:16:13;;;;;;;8.27;6.73;;;15.40;81.50;;;;;;4948706;29;20492;-43
2021/09/18 00:18:40;;;;;;;9.10;7.07;;;15.30;81.50;;;;;;4948322;28;20447;-43
2021/09/18 00:21:07;;;;;;;7.13;6.23;;;15.30;81.50;;;;;;4951864;28;20459;-43
2021/09/18 00:23:33;;;;;;;8.70;6.90;;;15.30;81.60;;;;;;4949492;29;20869;-44
2021/09/18 00:26:00;;;;;;;7.80;6.10;;;15.30;81.50;;;;;;4950817;29;20462;-43
2021/09/18 00:28:27;;;;;;;8.70;6.60;;;15.30;81.50;;;;;;4949640;28;20956;-43
2021/09/18 00:30:54;;;;;;;8.53;7.40;;;15.30;81.60;;;;;;4949711;28;20463;-43
2021/09/18 00:33:21;;;;;;;10.13;7.07;;;15.20;81.70;;;;;;4947471;28;20817;-44
2021/09/18 00:35:48;;;;;;;8.70;7.07;;;15.20;81.70;;;;;;4948365;28;20482;-44
2021/09/18 00:38:14;;;;;;;8.50;7.37;;;15.20;82.00;;;;;;4949827;28;20454;-44
2021/09/18 00:40:41;;;;;;;7.30;6.60;;;15.20;81.70;;;;;;4949205;28;20455;-44
2021/09/18 00:43:08;;;;;;;8.17;7.37;;;15.20;81.90;;;;;;4948111;28;20471;-45
2021/09/18 00:45:35;;;;;;;9.80;7.70;;;15.20;82.00;;;;;;4951176;28;20462;-44
2021/09/18 00:48:03;;;;;;;7.70;7.00;;;15.20;81.90;;;;;;4947342;28;20873;-44
2021/09/18 00:50:30;;;;;;;7.80;6.47;;;15.20;81.90;;;;;;4951241;28;20451;-44
2021/09/18 00:52:58;;;;;;;7.97;6.70;;;15.20;81.90;;;;;;4949836;28;20463;-44
2021/09/18 00:55:26;;;;;;;7.93;6.77;;;15.20;81.80;;;;;;4950741;28;20980;-44
2021/09/18 00:57:53;;;;;;;7.80;7.10;;;15.10;81.90;;;;;;4947456;28;20650;-44
2021/09/18 01:00:20;;;;;;;12.40;7.37;;;15.10;81.90;;;;;;4949701;29;20455;-44
2021/09/18 01:02:46;;;;;;;8.17;7.07;;;15.10;81.80;;;;;;4948239;28;20470;-44
2021/09/18 01:05:13;;;;;;;7.23;6.37;;;15.10;81.80;;;;;;4948898;28;20499;-44
2021/09/18 01:07:40;;;;;;;7.60;6.90;;;15.10;81.90;;;;;;4949113;29;20452;-44
2021/09/18 01:10:09;;;;;;;7.57;6.87;;;15.00;81.90;;;;;;4947237;28;20451;-43
2021/09/18 01:12:58;;;;;;;7.10;6.40;;;15.00;81.80;;;;;;4951548;28;20511;-44
2021/09/18 01:15:25;;;;;;;8.37;6.83;;;15.00;81.70;;;;;;4948002;28;20522;-44
2021/09/18 01:17:52;;;;;;;7.60;6.77;;;15.00;81.50;;;;;;4948784;28;20448;-43
2021/09/18 01:20:19;;;;;;;7.20;6.20;;;15.00;81.70;;;;;;4946112;29;21010;-43
2021/09/18 01:22:47;;;;;;;7.70;7.00;;;15.00;81.80;;;;;;4952944;29;20527;-43
2021/09/18 01:25:15;;;;;;;8.33;6.50;;;14.90;81.80;;;;;;4949417;28;20463;-43
2021/09/18 01:27:45;;;;;;;9.40;6.20;;;14.90;81.90;;;;;;4949585;28;20455;-43
2021/09/18 01:30:21;;;;;;;7.23;6.40;;;14.80;81.90;;;;;;4945397;28;20486;-43
2021/09/18 01:32:49;;;;;;;6.40;5.80;;;14.90;81.50;;;;;;4946433;28;20546;-43
2021/09/18 01:35:15;;;;;;;9.93;6.90;;;14.90;81.30;;;;;;4949977;28;21004;-43
2021/09/18 01:37:46;;;;;;;8.63;7.40;;;14.90;81.10;;;;;;4949073;28;20495;-43
2021/09/18 01:40:25;;;;;;;8.37;7.50;;;14.90;81.10;;;;;;4948841;28;20451;-43
2021/09/18 01:42:53;;;;;;;7.27;6.57;;;14.80;81.10;;;;;;4948147;28;20458;-43
2021/09/18 01:45:20;;;;;;;9.43;7.83;;;14.70;81.20;;;;;;4948068;28;20475;-43
2021/09/18 01:47:49;;;;;;;8.27;6.97;;;14.70;81.20;;;;;;4950485;28;20455;-43
2021/09/18 01:50:31;;;;;;;7.57;6.77;;;14.70;81.10;;;;;;4944670;28;20560;-43
2021/09/18 01:53:02;;;;;;;8.40;7.33;;;14.70;81.20;;;;;;4951309;28;20545;-43
2021/09/18 01:55:28;;;;;;;7.80;7.00;;;14.70;81.30;;;;;;4945857;28;20448;-43
2021/09/18 01:57:57;;;;;;;8.83;7.20;;;14.60;81.40;;;;;;4952624;28;20526;-43
2021/09/18 02:00:25;;;;;;;9.60;7.57;;;14.60;81.30;;;;;;4947236;28;20570;-43
2021/09/18 02:02:52;;;;;;;7.63;6.90;;;14.60;81.50;;;;;;4948139;28;20550;-43
2021/09/18 02:05:24;;;;;;;9.27;7.47;;;14.60;81.50;;;;;;4949625;28;21112;-43
2021/09/18 02:07:53;;;;;;;7.13;6.40;;;14.60;81.60;;;;;;4949919;28;20538;-43
2021/09/18 02:10:22;;;;;;;8.60;6.60;;;14.60;81.60;;;;;;4946845;28;20451;-43
2021/09/18 02:12:49;;;;;;;7.53;6.57;;;14.50;81.70;;;;;;4948578;29;20478;-43
2021/09/18 02:15:19;;;;;;;10.23;7.63;;;14.50;81.80;;;;;;4946474;28;20459;-43
2021/09/18 02:17:47;;;;;;;7.00;6.23;;;14.50;81.90;;;;;;4950938;28;21019;-43
2021/09/18 02:20:20;;;;;;;8.27;7.40;;;14.40;81.90;;;;;;4950994;28;20447;-43
2021/09/18 02:22:46;;;;;;;8.30;7.43;;;14.40;82.00;;;;;;4948781;28;20471;-43
2021/09/18 02:25:14;;;;;;;9.47;7.37;;;14.40;82.00;;;;;;4946766;28;20487;-43
2021/09/18 02:27:42;;;;;;;8.37;6.77;;;14.40;82.00;;;;;;4946852;28;20511;-42
2021/09/18 02:30:12;;;;;;;8.43;6.37;;;14.50;81.70;;;;;;4946686;28;20851;-43
2021/09/18 02:32:39;;;;;;;8.87;6.80;;;14.40;81.70;;;;;;4947757;28;20530;-43
2021/09/18 02:35:08;;;;;;;9.07;7.00;;;14.40;81.90;;;;;;4947940;28;20451;-43
2021/09/18 02:37:35;;;;;;;8.20;6.53;;;14.30;81.90;;;;;;4947155;28;20575;-43
2021/09/18 02:40:04;;;;;;;8.43;6.53;;;14.30;82.10;;;;;;4946314;28;20440;-43
2021/09/18 02:42:31;;;;;;;8.03;6.30;;;14.30;82.10;;;;;;4944264;28;20447;-43
2021/09/18 02:44:59;;;;;;;7.33;6.27;;;14.30;82.00;;;;;;4950440;28;20447;-43
2021/09/18 02:47:26;;;;;;;7.03;6.23;;;14.30;82.10;;;;;;4950548;28;20818;-43
2021/09/18 02:49:52;;;;;;;8.87;6.60;;;14.30;82.10;;;;;;4960526;28;20493;-43
2021/09/18 02:52:19;;;;;;;6.63;5.93;;;14.20;82.20;;;;;;4945229;28;20459;-43
2021/09/18 02:54:47;;;;;;;6.23;5.73;;;14.20;82.20;;;;;;4950110;28;20554;-43
2021/09/18 02:57:23;;;;;;;7.50;6.27;;;14.20;82.20;;;;;;4950449;28;21028;-43
2021/09/18 02:59:49;;;;;;;7.83;6.43;;;14.20;82.10;;;;;;4948202;29;20447;-43
2021/09/18 03:02:16;;;;;;;8.47;7.10;;;14.20;82.00;;;;;;4945194;28;21022;-42
2021/09/18 03:04:43;;;;;;;7.40;6.70;;;14.20;82.10;;;;;;4944735;29;20816;-42
2021/09/18 03:07:10;;;;;;;10.00;6.80;;;14.10;82.10;;;;;;4948255;28;20503;-42
2021/09/18 03:09:37;;;;;;;7.73;6.70;;;14.10;82.20;;;;;;4951291;28;21032;-42
2021/09/18 03:12:04;;;;;;;8.93;7.47;;;14.10;82.00;;;;;;4950597;28;21152;-42
2021/09/18 03:14:31;;;;;;;9.10;6.23;;;14.10;82.00;;;;;;4947699;28;20517;-42
2021/09/18 03:16:58;;;;;;;8.57;7.67;;;14.10;81.80;;;;;;4948008;28;20495;-42
2021/09/18 03:19:24;;;;;;;9.30;8.27;;;14.10;81.90;;;;;;4948551;28;20447;-42
2021/09/18 03:21:51;;;;;;;8.60;7.67;;;14.20;81.70;;;;;;4946330;28;20482;-42
2021/09/18 03:24:18;;;;;;;7.90;6.80;;;14.10;81.70;;;;;;4947421;28;20468;-42
2021/09/18 03:26:45;;;;;;;9.43;7.77;;;14.10;81.80;;;;;;4932911;29;21002;-42
2021/09/18 03:29:12;;;;;;;8.37;7.33;;;14.00;81.70;;;;;;4947583;28;20801;-42
2021/09/18 03:31:41;;;;;;;9.43;7.30;;;14.00;81.90;;;;;;4945212;29;20458;-42
2021/09/18 03:34:08;;;;;;;9.70;7.77;;;14.00;81.80;;;;;;4947747;28;21106;-42
2021/09/18 03:36:35;;;;;;;8.10;7.30;;;14.00;82.00;;;;;;4947723;28;20518;-42
2021/09/18 03:39:04;;;;;;;9.47;8.07;;;14.00;82.00;;;;;;4945938;28;20479;-42
2021/09/18 03:41:30;;;;;;;8.17;7.33;;;14.00;82.00;;;;;;4947170;28;20449;-42
2021/09/18 03:43:57;;;;;;;8.40;7.57;;;13.90;82.10;;;;;;4946336;28;21312;-41
2021/09/18 03:46:24;;;;;;;8.30;6.97;;;13.90;82.10;;;;;;4945618;28;20550;-41
2021/09/18 03:48:51;;;;;;;8.23;6.60;;;13.90;82.10;;;;;;4946825;28;20475;-41
2021/09/18 03:51:17;;;;;;;8.20;7.27;;;13.90;82.20;;;;;;4952680;28;20482;-42
2021/09/18 03:53:44;;;;;;;7.93;7.13;;;13.90;82.30;;;;;;4949396;28;20511;-42
2021/09/18 03:56:11;;;;;;;12.13;6.93;;;13.90;82.30;;;;;;4945017;28;20503;-41
2021/09/18 03:58:38;;;;;;;8.60;7.60;;;13.90;82.30;;;;;;4948944;28;20534;-42
2021/09/18 04:01:05;;;;;;;8.13;7.33;;;13.90;82.20;;;;;;4947145;28;20451;-42
2021/09/18 04:03:32;;;;;;;8.73;7.60;;;13.80;82.20;;;;;;4946043;28;20959;-41
2021/09/18 04:05:59;;;;;;;9.20;8.30;;;13.80;82.30;;;;;;4949232;29;20475;-42
2021/09/18 04:08:26;;;;;;;9.33;8.10;;;13.80;82.30;;;;;;4946801;28;20541;-42
2021/09/18 04:10:52;;;;;;;9.67;8.20;;;13.80;82.30;;;;;;4946328;28;20510;-42
2021/09/18 04:13:19;;;;;;;13.27;9.10;;;13.80;82.20;;;;;;4941819;28;20467;-42
2021/09/18 04:15:47;;;;;;;10.30;9.23;;;13.80;82.20;;;;;;4947144;28;21141;-41
2021/09/18 04:18:13;;;;;;;10.80;8.20;;;13.80;82.20;;;;;;4947942;29;20960;-41
2021/09/18 04:20:40;;;;;;;10.10;7.83;;;13.70;82.30;;;;;;4950245;28;20482;-41
2021/09/18 04:23:07;;;;;;;9.00;8.10;;;13.70;82.40;;;;;;4946489;28;20459;-42
2021/09/18 04:25:34;;;;;;;9.27;8.37;;;13.70;82.40;;;;;;4947303;28;20443;-42
2021/09/18 04:28:01;;;;;;;9.27;7.77;;;13.70;82.40;;;;;;4946051;28;20448;-42
2021/09/18 04:30:28;;;;;;;11.07;8.70;;;13.70;82.40;;;;;;4949210;28;20674;-42
2021/09/18 04:32:55;;;;;;;9.77;7.87;;;13.70;82.30;;;;;;4949720;28;20463;-42
2021/09/18 04:35:22;;;;;;;8.43;7.30;;;13.60;82.40;;;;;;4951204;28;20486;-42
2021/09/18 04:37:49;;;;;;;7.87;7.07;;;13.70;82.20;;;;;;4951553;28;20482;-42
2021/09/18 04:40:17;;;;;;;8.70;7.30;;;13.70;82.10;;;;;;4950386;28;20568;-42
2021/09/18 04:42:44;;;;;;;8.63;7.73;;;13.60;82.20;;;;;;4950958;28;20494;-42
2021/09/18 04:45:12;;;;;;;7.97;7.27;;;13.60;82.20;;;;;;4951736;28;20452;-42
2021/09/18 04:47:39;;;;;;;9.73;7.70;;;13.60;82.30;;;;;;4950133;28;20460;-42
2021/09/18 04:50:07;;;;;;;9.20;7.50;;;13.60;82.20;;;;;;4947249;29;20455;-42
2021/09/18 04:52:34;;;;;;;8.80;7.60;;;13.60;82.30;;;;;;4965534;28;20459;-41
2021/09/18 04:55:11;;;;;;;7.70;6.90;;;13.60;82.50;;;;;;4952540;28;20447;-41
2021/09/18 04:57:38;;;;;;;9.50;8.23;;;13.60;82.60;;;;;;4947203;28;20521;-41
2021/09/18 05:00:06;;;;;;;8.40;7.53;;;13.60;82.50;;;;;;4950856;28;20968;-41
2021/09/18 05:02:32;;;;;;;8.53;7.07;;;13.60;82.60;;;;;;4951045;29;20440;-42
2021/09/18 05:05:00;;;;;;;12.10;8.90;;;13.50;82.80;;;;;;4949514;28;20998;-42
2021/09/18 05:07:27;;;;;;;8.70;7.23;;;13.50;82.80;;;;;;4948481;28;20464;-42
2021/09/18 05:09:54;;;;;;;8.70;7.80;;;13.50;82.80;;;;;;4954785;28;20530;-42
2021/09/18 05:12:20;;;;;;;8.40;7.27;;;13.50;82.90;;;;;;4950426;28;21035;-42
2021/09/18 05:14:47;;;;;;;10.30;7.00;;;13.50;83.00;;;;;;4950555;28;20509;-42
2021/09/18 05:17:14;;;;;;;9.80;7.67;;;13.50;82.90;;;;;;4952207;28;20573;-42
2021/09/18 05:19:41;;;;;;;8.23;7.13;;;13.50;82.90;;;;;;4950043;28;20830;-42
2021/09/18 05:22:08;;;;;;;8.37;7.57;;;13.50;82.90;;;;;;4951304;28;20459;-42
2021/09/18 05:24:34;;;;;;;7.57;6.70;;;13.50;82.90;;;;;;4949689;28;21037;-42
2021/09/18 05:27:01;;;;;;;8.03;6.80;;;13.50;82.90;;;;;;4950033;29;20482;-42
2021/09/18 05:29:28;;;;;;;10.37;7.50;;;13.50;82.90;;;;;;4948919;28;20475;-42
2021/09/18 05:31:55;;;;;;;8.23;7.43;;;13.40;83.00;;;;;;4949377;28;20494;-41
2021/09/18 05:34:22;;;;;;;11.00;7.93;;;13.50;83.10;;;;;;4945832;28;20494;-42
2021/09/18 05:36:49;;;;;;;8.93;7.60;;;13.50;83.10;;;;;;4948613;28;20463;-42
2021/09/18 05:39:15;;;;;;;8.80;8.00;;;13.50;83.20;;;;;;4948538;28;20442;-42
2021/09/18 05:41:42;;;;;;;10.30;8.23;;;13.50;83.20;;;;;;4945961;28;20444;-42
2021/09/18 05:44:10;;;;;;;10.10;9.03;;;13.50;83.40;;;;;;4949146;28;20497;-42
2021/09/18 05:46:37;;;;;;;9.63;8.00;;;13.50;83.30;;;;;;4950168;28;21008;-42
2021/09/18 05:49:04;;;;;;;10.80;7.77;;;13.50;83.40;;;;;;4949438;28;20851;-42
2021/09/18 05:51:31;;;;;;;10.93;8.47;;;13.50;83.40;;;;;;4948668;28;20446;-42
2021/09/18 05:53:58;;;;;;;10.60;8.30;;;13.50;83.50;;;;;;4952167;28;20483;-42
2021/09/18 05:56:25;;;;;;;9.53;8.23;;;13.50;83.70;;;;;;4948699;28;20937;-42
2021/09/18 05:59:01;;;;;;;9.00;8.10;;;13.50;83.80;;;;;;4948003;28;20866;-42
2021/09/18 06:01:29;;;;;;;9.50;8.50;;;13.50;83.90;;;;;;4948382;28;20858;-42
2021/09/18 06:03:57;;;;;;;7.80;7.00;;;13.60;83.90;;;;;;4949781;28;20859;-42
2021/09/18 06:06:24;;;;;;;10.13;8.20;;;13.60;83.90;;;;;;4946810;28;20554;-42
2021/09/18 06:08:51;;;;;;;9.37;8.23;;;13.60;83.90;;;;;;4950882;28;20478;-42
2021/09/18 06:11:18;;;;;;;9.63;7.73;;;13.70;84.00;;;;;;4948210;28;20459;-42
2021/09/18 06:13:45;;;;;;;9.50;8.10;;;13.70;83.80;;;;;;4948731;28;20491;-42
2021/09/18 06:16:13;;;;;;;9.90;8.07;;;13.80;83.70;;;;;;4950215;28;20891;-42
2021/09/18 06:18:41;;;;;;;11.53;9.30;;;13.80;83.70;;;;;;4948350;28;20479;-42
2021/09/18 06:21:08;;;;;;;14.63;12.60;;;13.90;83.60;;;;;;4947720;28;20683;-42
2021/09/18 06:23:37;;;;;;;15.43;13.13;;;13.90;83.70;;;;;;4947367;28;20547;-42
2021/09/18 06:26:04;;;;;;;14.83;12.00;;;13.90;83.70;;;;;;4947362;28;20533;-42
2021/09/18 06:28:31;;;;;;;15.57;13.97;;;13.90;83.60;;;;;;4954781;28;20863;-42
2021/09/18 06:30:58;;;;;;;17.70;15.23;;;14.00;83.80;;;;;;4950063;28;20723;-42
2021/09/18 06:33:25;;;;;;;15.77;12.00;;;14.00;83.70;;;;;;4948255;28;20502;-42
2021/09/18 06:35:52;;;;;;;15.07;12.37;;;14.10;83.80;;;;;;4949134;28;20946;-42
2021/09/18 06:38:22;;;;;;;11.80;10.10;;;14.10;83.60;;;;;;4946653;28;20490;-42
2021/09/18 06:40:51;;;;;;;14.40;9.47;;;14.20;83.60;;;;;;4945942;28;20440;-42
2021/09/18 06:43:19;;;;;;;10.97;8.77;;;14.30;83.40;;;;;;4948054;29;20530;-42
2021/09/18 06:45:47;;;;;;;12.27;10.97;;;14.30;83.40;;;;;;4947302;28;20518;-42
2021/09/18 06:48:14;;;;;;;10.87;9.73;;;14.30;83.60;;;;;;4949851;28;20467;-42
2021/09/18 06:50:41;;;;;;;10.07;9.07;;;14.30;83.70;;;;;;4943991;28;20500;-42
2021/09/18 06:53:09;;;;;;;11.93;9.87;;;14.30;83.90;;;;;;4948975;28;20507;-42
2021/09/18 06:55:36;;;;;;;9.30;8.40;;;14.40;84.00;;;;;;4950247;29;20612;-41
2021/09/18 06:58:03;;;;;;;14.40;9.13;;;14.40;84.00;;;;;;4950517;28;20549;-41
2021/09/18 07:00:31;;;;;;;12.03;9.23;;;14.50;84.00;;;;;;4946706;28;20440;-42
2021/09/18 07:02:58;;;;;;;14.60;9.97;;;14.50;83.80;;;;;;4949373;28;20491;-42
2021/09/18 07:05:25;;;;;;;12.70;10.03;;;14.60;83.70;;;;;;4943091;28;20450;-42
2021/09/18 07:07:52;;;;;;;12.20;9.57;;;14.70;83.30;;;;;;4951728;28;20898;-42
2021/09/18 07:10:19;;;;;;;13.30;8.50;;;14.80;83.20;;;;;;4947559;28;20451;-42
2021/09/18 07:12:45;;;;;;;11.73;9.30;;;14.80;83.10;;;;;;4949961;28;20980;-41
2021/09/18 07:15:12;;;;;;;11.03;9.60;;;14.90;83.00;;;;;;4944184;28;20459;-42
2021/09/18 07:17:39;;;;;;;11.70;10.13;;;14.90;83.00;;;;;;4950666;28;20525;-42
2021/09/18 07:20:08;;;;;;;13.60;10.17;;;15.00;82.90;;;;;;4949790;28;20458;-42
2021/09/18 07:22:35;;;;;;;10.63;9.53;;;15.10;82.80;;;;;;4949113;28;20531;-42
2021/09/18 07:25:03;;;;;;;10.90;9.80;;;15.10;82.70;;;;;;4945517;28;20939;-42
2021/09/18 07:27:30;;;;;;;10.47;9.27;;;15.20;82.80;;;;;;4949530;29;20792;-42
2021/09/18 07:29:58;;;;;;;12.90;9.90;;;15.20;82.80;;;;;;4943950;28;20946;-42
2021/09/18 07:32:25;;;;;;;13.53;10.40;;;15.30;82.90;;;;;;4946557;28;20464;-42
2021/09/18 07:34:52;;;;;;;12.00;8.97;;;15.40;82.70;;;;;;4951066;28;20452;-42
2021/09/18 07:37:20;;;;;;;10.97;9.70;;;15.50;82.60;;;;;;4948503;28;20836;-42
2021/09/18 07:39:48;;;;;;;18.13;11.27;;;15.60;82.50;;;;;;4947662;28;20457;-42
2021/09/18 07:42:15;;;;;;;12.20;10.50;;;15.70;82.00;;;;;;4949414;28;20480;-42
2021/09/18 07:44:42;;;;;;;13.53;11.20;;;15.80;81.20;;;;;;4946599;28;20468;-42
2021/09/18 07:47:08;;;;;;;14.60;10.20;;;15.90;81.10;;;;;;4948743;28;20468;-42
2021/09/18 07:49:35;;;;;;;12.53;10.13;;;16.10;81.00;;;;;;4949482;28;21013;-42
2021/09/18 07:52:03;;;;;;;12.90;9.90;;;16.20;80.60;;;;;;4949472;28;20944;-42
2021/09/18 07:54:31;;;;;;;12.53;9.90;;;16.40;80.50;;;;;;4946627;28;20447;-42
2021/09/18 07:57:18;;;;;;;15.00;11.00;;;16.50;80.20;;;;;;4944408;28;20458;-42
2021/09/18 07:59:45;;;;;;;14.67;11.50;;;16.70;79.80;;;;;;4947792;28;20458;-42
2021/09/18 08:02:11;;;;;;;12.13;10.00;;;16.80;79.50;;;;;;4940749;28;20829;-42
2021/09/18 08:04:39;;;;;;;12.60;10.60;;;17.00;79.10;;;;;;4949371;28;20451;-42
2021/09/18 08:07:06;;;;;;;15.93;12.60;;;17.10;78.70;;;;;;4954178;28;20455;-42
2021/09/18 08:09:32;;;;;;;13.50;10.97;;;17.30;77.80;;;;;;4951763;28;20439;-42
2021/09/18 08:11:59;;;;;;;13.97;11.67;;;17.40;77.40;;;;;;4952829;28;20830;-42
2021/09/18 08:14:27;;;;;;;18.50;11.77;;;17.60;76.90;;;;;;4952589;28;20843;-42
2021/09/18 08:16:55;;;;;;;14.50;10.67;;;17.80;76.40;;;;;;4949722;28;20537;-42
2021/09/18 08:19:22;;;;;;;12.30;10.03;;;17.90;75.40;;;;;;4950687;28;20493;-42
2021/09/18 08:21:49;;;;;;;12.90;10.10;;;18.10;75.10;;;;;;4949982;28;20551;-42
2021/09/18 08:24:17;;;;;;;15.90;11.83;;;18.20;74.80;;;;;;4950839;28;20899;-42
2021/09/18 08:26:44;;;;;;;13.87;10.90;;;18.40;74.20;;;;;;4951834;28;20444;-42
2021/09/18 08:29:12;;;;;;;11.97;10.10;;;18.60;73.80;;;;;;4950505;28;20474;-42
2021/09/18 08:31:39;;;;;;;13.97;11.47;;;18.80;73.10;;;;;;4947856;29;20452;-42
2021/09/18 08:34:06;;;;;;;12.13;10.17;;;19.00;72.60;;;;;;4952615;28;20817;-42
2021/09/18 08:36:32;;;;;;;14.40;10.53;;;19.20;72.40;;;;;;4949553;28;20558;-42
2021/09/18 08:38:59;;;;;;;15.13;13.03;;;19.30;71.80;;;;;;4950492;28;20486;-42
2021/09/18 08:41:29;;;;;;;17.73;12.77;;;19.50;71.40;;;;;;4949327;28;20456;-42
2021/09/18 08:43:57;;;;;;;15.13;13.53;;;19.60;70.60;;;;;;4946734;28;20450;-42
2021/09/18 08:46:25;;;;;;;16.73;11.90;;;19.80;70.40;;;;;;4944895;28;20518;-42
2021/09/18 08:48:54;;;;;;;18.67;15.73;;;20.00;70.00;;;;;;4946907;28;20894;-42
2021/09/18 08:51:22;;;;;;;21.47;15.10;;;20.10;69.60;;;;;;4952830;28;20446;-42
2021/09/18 08:53:49;;;;;;;16.97;13.93;;;20.20;69.50;;;;;;4949608;28;21039;-42
2021/09/18 08:56:18;;;;;;;20.13;14.80;;;20.30;69.40;;;;;;4949566;28;20561;-42
2021/09/18 08:58:45;;;;;;;18.00;16.10;;;20.50;69.00;;;;;;4964723;28;20838;-42
2021/09/18 09:01:13;;;;;;;19.57;16.20;;;20.60;68.50;;;;;;4951836;28;20537;-42
2021/09/18 09:03:41;;;;;;;19.50;15.60;;;20.70;68.50;;;;;;4950217;28;20463;-42
2021/09/18 09:06:09;;;;;;;18.37;14.83;;;20.70;68.10;;;;;;4948222;28;20558;-42
2021/09/18 09:08:38;;;;;;;22.67;16.20;;;20.80;68.10;;;;;;4947528;28;20462;-42
2021/09/18 09:11:21;;;;;;;21.83;16.17;;;20.70;68.30;;;;;;4952934;28;20455;-42
2021/09/18 09:14:08;;;;;;;17.43;15.50;;;20.70;68.50;;;;;;4951756;28;20479;-42
2021/09/18 09:16:36;;;;;;;19.20;16.57;;;20.60;68.60;;;;;;4948510;28;20475;-42
2021/09/18 09:19:15;;;;;;;18.50;15.77;;;20.60;68.90;;;;;;4952660;28;20487;-42
2021/09/18 09:21:53;;;;;;;20.43;16.10;;;20.60;68.80;;;;;;4948290;28;20442;-42
2021/09/18 09:24:23;;;;;;;18.77;15.70;;;20.50;68.50;;;;;;4947455;28;20538;-42
2021/09/18 09:27:13;;;;;;;18.40;15.90;;;20.50;68.60;;;;;;4950125;28;20534;-42
2021/09/18 09:29:42;;;;;;;19.33;16.20;;;20.60;68.90;;;;;;4946622;28;20451;-42
2021/09/18 09:32:31;;;;;;;22.20;17.07;;;20.70;69.20;;;;;;4951316;28;20462;-42
2021/09/18 09:35:00;;;;;;;21.60;16.37;;;20.70;68.50;;;;;;4948269;28;20465;-45
2021/09/18 09:37:27;;;;;;;20.83;16.00;;;20.80;68.60;;;;;;4951376;28;20453;-42
2021/09/18 09:40:03;;;;;;;19.13;16.70;;;20.90;68.90;;;;;;4963078;28;20852;-42
2021/09/18 09:42:40;;;;;;;23.40;18.60;;;21.00;69.00;;;;;;4947268;28;20458;-42
2021/09/18 09:45:10;;;;;;;23.03;17.80;;;21.10;68.00;;;;;;4950116;28;20466;-42
2021/09/18 09:47:36;;;;;;;26.10;20.87;;;21.10;68.00;;;;;;4947435;28;20534;-42
2021/09/18 09:50:05;;;;;;;24.87;19.33;;;21.00;68.00;;;;;;4946716;28;20963;-42
2021/09/18 09:52:34;;;;;;;29.10;21.60;;;21.10;68.20;;;;;;4946616;28;20455;-42
2021/09/18 09:55:15;;;;;;;24.97;20.87;;;21.10;68.40;;;;;;4943245;29;20487;-42
2021/09/18 09:57:44;;;;;;;25.43;20.47;;;21.20;68.40;;;;;;4949520;28;20551;-42
2021/09/18 10:00:15;;;;;;;25.70;20.97;;;21.20;67.70;;;;;;4948418;28;20531;-42
2021/09/18 10:02:43;;;;;;;27.83;20.50;;;21.30;67.40;;;;;;4950949;29;20534;-42
2021/09/18 10:05:13;;;;;;;24.77;19.97;;;21.40;67.40;;;;;;4948897;28;20446;-42
2021/09/18 10:07:41;;;;;;;21.23;18.43;;;21.50;67.50;;;;;;4946746;28;20455;-42
2021/09/18 10:10:12;;;;;;;26.73;20.33;;;21.60;66.90;;;;;;4947370;28;20455;-42
2021/09/18 10:12:39;;;;;;;25.17;18.63;;;21.70;66.30;;;;;;4949067;28;20887;-42
2021/09/18 10:15:09;;;;;;;25.03;20.10;;;21.90;66.00;;;;;;4950236;28;20533;-42
2021/09/18 10:17:43;;;;;;;28.83;20.83;;;22.20;65.00;;;;;;4951934;28;20470;-42
2021/09/18 10:25:38;;;;;;;25.23;19.80;;;23.30;62.70;;;;;;4947377;28;20453;-42
2021/09/18 10:28:25;;;;;;;24.40;20.67;;;23.80;60.70;;;;;;4947366;28;20463;-42
2021/09/18 10:31:13;;;;;;;28.43;21.93;;;24.20;59.60;;;;;;4958279;28;20446;-42
2021/09/18 10:33:44;;;;;;;27.30;22.73;;;24.40;58.70;;;;;;4946662;28;20447;-42
2021/09/18 10:36:42;;;;;;;31.87;23.40;;;24.70;57.90;;;;;;4945936;28;20454;-42
2021/09/18 10:39:10;;;;;;;28.00;22.00;;;24.90;56.90;;;;;;4948259;28;20526;-42
2021/09/18 10:41:52;;;;;;;32.80;22.50;;;25.00;56.90;;;;;;4947589;29;20531;-42
2021/09/18 10:44:21;;;;;;;27.03;21.80;;;25.10;56.90;;;;;;4945512;28;20459;-42
2021/09/18 10:47:01;;;;;;;23.47;19.70;;;25.20;56.40;;;;;;4948361;28;20462;-43
2021/09/18 10:49:43;;;;;;;27.60;22.70;;;25.20;56.60;;;;;;4945251;28;20458;-43
2021/09/18 10:52:25;;;;;;;24.57;20.33;;;25.20;56.30;;;;;;4948994;28;20565;-42
2021/09/18 10:55:01;;;;;;;24.10;21.37;;;25.20;56.60;;;;;;4944670;28;20529;-43
2021/09/18 10:57:55;;;;;;;29.40;20.97;;;25.00;56.80;;;;;;4946651;28;20883;-43
2021/09/18 11:00:26;;;;;;;27.50;22.17;;;24.90;57.10;;;;;;4944610;28;20495;-43
2021/09/18 11:02:54;;;;;;;29.27;23.40;;;24.70;57.10;;;;;;4947523;28;20481;-43
2021/09/18 11:05:21;;;;;;;27.80;22.40;;;24.50;57.50;;;;;;4949050;28;20459;-43
2021/09/18 11:07:50;;;;;;;30.07;22.53;;;24.40;57.80;;;;;;4948000;28;20565;-43
2021/09/18 11:10:20;;;;;;;28.43;23.10;;;24.30;58.00;;;;;;4945219;28;20554;-43
2021/09/18 11:13:08;;;;;;;29.37;22.63;;;24.20;58.20;;;;;;4947217;28;20820;-44
2021/09/18 11:15:44;;;;;;;27.27;21.50;;;24.10;58.30;;;;;;4947223;28;20459;-43
2021/09/18 11:18:17;;;;;;;25.03;20.57;;;24.00;58.90;;;;;;4948281;28;20504;-43
2021/09/18 11:20:44;;;;;;;29.00;22.73;;;24.00;59.10;;;;;;4943411;28;20458;-43
2021/09/18 11:23:12;;;;;;;23.97;20.50;;;23.90;59.20;;;;;;4947260;28;20557;-43
2021/09/18 11:25:43;;;;;;;27.40;21.37;;;23.80;59.30;;;;;;4947850;28;20470;-43
2021/09/18 11:28:13;;;;;;;26.67;22.17;;;23.70;61.00;;;;;;4947486;29;20836;-43
2021/09/18 11:30:47;;;;;;;26.20;21.97;;;23.60;60.20;;;;;;4950399;28;20478;-43
2021/09/18 11:33:20;;;;;;;27.27;21.83;;;23.40;60.80;;;;;;4946913;28;20476;-43
2021/09/18 11:36:00;;;;;;;31.43;23.30;;;23.20;61.10;;;;;;4949637;28;20905;-43
2021/09/18 11:38:31;;;;;;;27.10;21.70;;;23.10;60.90;;;;;;4948769;28;20986;-42
2021/09/18 11:41:07;;;;;;;23.03;19.80;;;22.90;61.10;;;;;;4948342;28;20453;-42
2021/09/18 11:43:35;;;;;;;28.07;20.70;;;22.80;61.40;;;;;;4952778;28;20843;-43
2021/09/18 11:46:03;;;;;;;35.17;22.97;;;22.80;62.00;;;;;;4948767;28;20598;-43
2021/09/18 11:48:32;;;;;;;27.80;23.33;;;22.60;61.20;;;;;;4950360;28;20446;-43
2021/09/18 11:51:01;;;;;;;28.13;19.53;;;22.60;61.70;;;;;;4954732;28;20450;-41
2021/09/18 11:53:27;;;;;;;27.70;24.63;;;22.50;62.20;;;;;;4951650;28;20443;-42
2021/09/18 11:55:56;;;;;;;24.07;20.13;;;22.40;62.40;;;;;;4951020;29;20446;-42
2021/09/18 11:58:23;;;;;;;24.97;21.63;;;22.40;62.40;;;;;;4948482;28;20549;-42
2021/09/18 12:01:01;;;;;;;24.07;19.47;;;22.40;62.50;;;;;;4952303;28;20816;-42
2021/09/18 12:03:40;;;;;;;23.43;19.20;;;22.40;62.80;;;;;;4953725;28;20820;-43
2021/09/18 12:06:08;;;;;;;24.20;20.87;;;22.40;63.20;;;;;;4946619;29;20455;-43
2021/09/18 12:08:36;;;;;;;28.07;22.37;;;22.40;63.70;;;;;;4949199;29;20462;-43
2021/09/18 12:11:11;;;;;;;26.57;20.77;;;22.40;62.90;;;;;;4952907;28;20512;-43
2021/09/18 12:13:40;;;;;;;26.10;20.90;;;22.40;63.20;;;;;;4950324;28;20480;-41
2021/09/18 12:16:08;;;;;;;22.47;17.77;;;22.40;63.30;;;;;;4948107;28;20553;-41
2021/09/18 12:18:37;;;;;;;24.37;19.27;;;22.40;62.90;;;;;;4950643;28;20489;-42
2021/09/18 12:21:18;;;;;;;28.10;19.93;;;22.40;62.60;;;;;;4948154;28;20972;-42
2021/09/18 12:23:47;;;;;;;21.93;19.00;;;22.40;62.70;;;;;;4951346;28;20463;-42
2021/09/18 12:26:16;;;;;;;24.07;18.20;;;22.40;62.40;;;;;;4945633;28;20443;-43
2021/09/18 12:28:43;;;;;;;26.20;18.77;;;22.40;62.60;;;;;;4951325;28;20506;-43
2021/09/18 12:31:15;;;;;;;23.43;17.60;;;22.40;62.60;;;;;;4944513;28;20494;-43
2021/09/18 12:33:42;;;;;;;21.80;19.23;;;22.50;62.50;;;;;;4951459;28;20956;-43
2021/09/18 12:36:14;;;;;;;19.47;17.37;;;22.50;62.50;;;;;;4952745;28;20461;-43
2021/09/18 12:38:43;;;;;;;20.60;17.07;;;22.50;62.20;;;;;;4948567;28;21008;-43
2021/09/18 12:41:15;;;;;;;22.07;18.40;;;22.50;62.40;;;;;;4949451;28;20451;-43
2021/09/18 12:44:04;;;;;;;26.73;20.97;;;22.50;62.50;;;;;;4951325;28;20451;-43
2021/09/18 12:46:42;;;;;;;25.20;19.80;;;22.50;62.20;;;;;;4944858;28;21012;-43
2021/09/18 12:49:10;;;;;;;26.30;19.43;;;22.40;62.10;;;;;;4951595;28;20454;-43
2021/09/18 12:51:38;;;;;;;20.10;18.00;;;22.30;62.40;;;;;;4943344;28;20451;-43